Time;durP1;ratioP1;P1;durP2;ratioP2;P2;SDS_P1;SDS_P2;PMS_P1;PMS_P2;Temp;Humidity;BMP_temperature;BMP_pressure;BME280_temperature;BME280_humidity;BME280_pressure;Samples;Min_cycle;Max_cycle;Signal;HPM_P1;HPM_P2
2022/11/23 00:01:26;;;;;;;33.42;23.00;;;7.70;99.90;;;;;;5070654;28;20209;-76
2022/11/23 00:03:54;;;;;;;38.03;23.85;;;7.80;99.90;;;;;;5067649;28;20190;-76
2022/11/23 00:06:22;;;;;;;36.35;24.23;;;7.80;99.90;;;;;;5085193;28;20189;-76
2022/11/23 00:08:48;;;;;;;34.80;24.33;;;7.80;99.90;;;;;;5074195;28;20174;-75
2022/11/23 00:11:15;;;;;;;39.80;26.08;;;7.80;99.90;;;;;;5069235;28;20167;-76
2022/11/23 00:13:41;;;;;;;37.28;26.25;;;7.80;99.90;;;;;;5067199;28;20202;-75
2022/11/23 00:16:08;;;;;;;37.60;27.02;;;7.80;99.90;;;;;;5074234;28;20178;-76
2022/11/23 00:18:34;;;;;;;35.25;25.35;;;7.80;99.90;;;;;;5072636;28;20198;-76
2022/11/23 00:21:05;;;;;;;36.45;25.58;;;7.80;99.90;;;;;;5073186;28;20179;-75
2022/11/23 00:23:31;;;;;;;40.75;26.92;;;7.90;99.90;;;;;;5063529;28;20190;-76
2022/11/23 00:25:56;;;;;;;42.80;27.38;;;7.90;99.90;;;;;;5070769;28;20293;-76
2022/11/23 00:28:22;;;;;;;37.85;27.60;;;7.80;99.90;;;;;;5071722;28;20182;-76
2022/11/23 00:30:49;;;;;;;38.78;27.15;;;7.90;99.90;;;;;;5072785;28;20179;-76
2022/11/23 00:33:15;;;;;;;39.20;27.25;;;7.90;99.90;;;;;;5057143;28;20210;-76
2022/11/23 00:35:41;;;;;;;42.10;27.88;;;7.90;99.90;;;;;;5069812;28;20241;-76
2022/11/23 00:38:07;;;;;;;42.10;27.63;;;7.90;99.90;;;;;;5085628;28;20645;-76
2022/11/23 00:40:32;;;;;;;40.65;27.92;;;7.90;99.90;;;;;;5089471;28;20194;-76
2022/11/23 00:42:58;;;;;;;42.08;27.65;;;7.90;99.90;;;;;;5070793;28;20197;-76
2022/11/23 00:45:24;;;;;;;39.67;25.17;;;7.90;99.90;;;;;;5070756;28;20646;-76
2022/11/23 00:47:52;;;;;;;37.92;26.35;;;8.00;99.90;;;;;;5087235;28;20189;-76
2022/11/23 00:50:17;;;;;;;39.90;25.50;;;8.00;99.90;;;;;;5073633;28;20182;-76
2022/11/23 00:52:43;;;;;;;35.90;24.98;;;8.00;99.90;;;;;;5069926;28;20467;-76
2022/11/23 00:55:09;;;;;;;38.55;25.52;;;8.00;99.90;;;;;;5062360;28;20279;-76
2022/11/23 00:57:35;;;;;;;37.65;24.75;;;8.10;99.90;;;;;;5081104;28;20188;-75
2022/11/23 01:00:01;;;;;;;33.80;23.23;;;8.00;99.90;;;;;;5060370;28;20186;-76
2022/11/23 01:02:26;;;;;;;37.92;24.30;;;8.10;99.90;;;;;;5070766;28;20193;-76
2022/11/23 01:04:52;;;;;;;36.05;23.17;;;8.10;99.90;;;;;;5060380;28;20191;-82
2022/11/23 01:07:19;;;;;;;37.60;24.35;;;8.10;99.90;;;;;;5060420;28;20236;-76
2022/11/23 01:09:45;;;;;;;37.17;23.42;;;8.10;99.90;;;;;;5072961;28;20558;-75
2022/11/23 01:12:11;;;;;;;34.15;23.40;;;8.10;99.90;;;;;;5069855;28;20221;-76
2022/11/23 01:14:37;;;;;;;33.70;22.30;;;8.20;99.90;;;;;;5063994;28;20233;-78
2022/11/23 01:17:03;;;;;;;31.13;22.35;;;8.20;99.90;;;;;;5066722;28;20225;-76
2022/11/23 01:19:33;;;;;;;41.83;22.55;;;8.20;99.90;;;;;;5068523;28;20309;-76
2022/11/23 01:21:58;;;;;;;33.38;21.45;;;8.20;99.90;;;;;;5061959;28;20211;-79
2022/11/23 01:24:24;;;;;;;30.77;21.90;;;8.30;99.90;;;;;;5084192;28;20179;-76
2022/11/23 01:26:51;;;;;;;33.75;21.95;;;8.30;99.90;;;;;;5061428;28;20584;-76
2022/11/23 01:29:19;;;;;;;35.70;23.02;;;8.30;99.90;;;;;;5070585;28;20186;-76
2022/11/23 01:31:45;;;;;;;32.90;22.45;;;8.30;99.90;;;;;;5072549;28;20170;-76
2022/11/23 01:34:13;;;;;;;30.90;22.20;;;8.30;99.90;;;;;;5069267;28;20313;-75
2022/11/23 01:36:39;;;;;;;34.58;20.88;;;8.30;99.90;;;;;;5059962;28;20210;-75
2022/11/23 01:39:05;;;;;;;34.70;21.42;;;8.40;99.90;;;;;;5083038;28;20631;-76
2022/11/23 01:41:35;;;;;;;31.48;20.33;;;8.40;99.90;;;;;;5051574;28;20191;-76
2022/11/23 01:44:25;;;;;;;33.50;21.35;;;8.40;99.90;;;;;;5051851;28;20634;-75
2022/11/23 01:46:56;;;;;;;27.70;19.60;;;8.40;99.90;;;;;;5065976;28;20178;-80
2022/11/23 01:49:24;;;;;;;32.97;19.85;;;8.40;99.90;;;;;;5051815;28;20187;-76
2022/11/23 01:51:53;;;;;;;31.15;19.38;;;8.40;99.90;;;;;;5063860;28;20209;-76
2022/11/23 01:54:25;;;;;;;28.33;19.15;;;8.40;99.90;;;;;;5070434;28;20260;-76
2022/11/23 01:56:56;;;;;;;27.17;18.40;;;8.50;99.90;;;;;;5061301;28;20174;-77
2022/11/23 01:59:23;;;;;;;33.33;19.40;;;8.50;99.90;;;;;;5066592;28;20180;-75
2022/11/23 02:01:49;;;;;;;28.15;18.45;;;8.50;99.90;;;;;;5070078;28;20175;-77
2022/11/23 02:04:23;;;;;;;27.13;17.95;;;8.50;99.90;;;;;;5051523;28;20339;-75
2022/11/23 02:06:51;;;;;;;29.20;17.85;;;8.50;99.90;;;;;;5071495;28;20335;-80
2022/11/23 02:09:20;;;;;;;26.63;18.45;;;8.50;99.90;;;;;;5057627;28;20241;-76
2022/11/23 02:11:46;;;;;;;28.55;17.73;;;8.50;99.90;;;;;;5058955;28;20265;-76
2022/11/23 02:14:13;;;;;;;33.65;18.60;;;8.50;99.90;;;;;;5060547;28;20252;-76
2022/11/23 02:16:39;;;;;;;25.02;19.23;;;8.50;99.90;;;;;;5055656;28;20195;-77
2022/11/23 02:19:19;;;;;;;33.00;18.70;;;8.60;99.90;;;;;;5059345;28;20187;-80
2022/11/23 02:21:45;;;;;;;25.80;18.08;;;8.50;99.90;;;;;;5071426;28;20171;-76
2022/11/23 02:24:24;;;;;;;29.27;18.13;;;8.60;99.90;;;;;;5067472;28;20195;-76
2022/11/23 02:26:50;;;;;;;28.20;18.50;;;8.60;99.90;;;;;;5069190;28;20467;-76
2022/11/23 02:29:23;;;;;;;26.63;18.00;;;8.60;99.90;;;;;;5051621;28;20183;-76
2022/11/23 02:31:50;;;;;;;29.83;18.05;;;8.60;99.90;;;;;;5051128;28;20176;-76
2022/11/23 02:34:16;;;;;;;32.30;19.10;;;8.60;99.90;;;;;;5062520;28;20214;-76
2022/11/23 02:36:53;;;;;;;28.77;18.85;;;8.60;99.90;;;;;;5069715;28;20365;-76
2022/11/23 02:39:50;;;;;;;31.85;19.45;;;8.60;99.90;;;;;;5071502;28;20208;-76
2022/11/23 02:42:16;;;;;;;32.10;19.05;;;8.60;99.90;;;;;;5051546;28;20541;-78
2022/11/23 02:45:03;;;;;;;32.55;19.33;;;8.60;99.90;;;;;;5070305;28;20214;-77
2022/11/23 02:47:29;;;;;;;26.10;18.48;;;8.60;99.90;;;;;;5073028;28;20199;-81
2022/11/23 02:49:55;;;;;;;26.75;18.58;;;8.60;99.90;;;;;;5063042;28;20794;-76
2022/11/23 02:52:21;;;;;;;31.85;18.88;;;8.70;99.90;;;;;;5073737;28;20681;-76
2022/11/23 02:54:46;;;;;;;27.95;19.13;;;8.70;99.90;;;;;;5054810;28;20226;-82
2022/11/23 02:57:13;;;;;;;32.33;19.80;;;8.60;99.90;;;;;;5057454;28;20788;-75
2022/11/23 02:59:43;;;;;;;34.53;20.02;;;8.70;99.90;;;;;;5074434;28;20270;-76
2022/11/23 03:02:08;;;;;;;39.80;19.70;;;8.70;99.90;;;;;;5073547;28;20274;-76
2022/11/23 03:04:34;;;;;;;27.75;18.40;;;8.70;99.90;;;;;;5088788;28;20248;-77
2022/11/23 03:07:00;;;;;;;32.13;18.92;;;8.70;99.90;;;;;;5059043;28;20183;-76
2022/11/23 03:09:27;;;;;;;28.48;19.02;;;8.70;99.90;;;;;;5073540;28;20186;-76
2022/11/23 03:11:53;;;;;;;33.00;19.08;;;8.70;99.90;;;;;;5074359;28;20214;-76
2022/11/23 03:14:18;;;;;;;31.65;18.77;;;8.70;99.90;;;;;;5072431;28;20214;-76
2022/11/23 03:16:57;;;;;;;28.17;18.30;;;8.70;99.90;;;;;;5060469;28;20185;-76
2022/11/23 03:19:23;;;;;;;30.40;18.10;;;8.70;99.90;;;;;;5062158;28;20206;-76
2022/11/23 03:21:50;;;;;;;28.65;18.25;;;8.70;99.90;;;;;;5059834;28;20209;-75
2022/11/23 03:24:16;;;;;;;31.42;19.17;;;8.70;99.90;;;;;;5070273;28;20746;-75
2022/11/23 03:26:43;;;;;;;24.23;18.17;;;8.70;99.90;;;;;;5072920;28;20197;-75
2022/11/23 03:29:13;;;;;;;29.73;17.65;;;8.70;99.90;;;;;;5071613;28;20183;-75
2022/11/23 03:31:40;;;;;;;30.95;17.20;;;8.70;99.90;;;;;;5073787;28;20214;-75
2022/11/23 03:34:10;;;;;;;26.25;17.35;;;8.70;99.90;;;;;;5056414;28;20218;-77
2022/11/23 03:36:36;;;;;;;24.98;17.95;;;8.70;99.90;;;;;;5066814;28;20556;-76
2022/11/23 03:39:03;;;;;;;30.30;18.08;;;8.70;99.90;;;;;;5070862;28;20671;-75
2022/11/23 03:41:51;;;;;;;30.38;18.33;;;8.70;99.90;;;;;;5074606;28;20653;-75
2022/11/23 03:44:19;;;;;;;27.40;17.77;;;8.70;99.90;;;;;;5063259;28;20189;-79
2022/11/23 03:46:45;;;;;;;27.60;18.40;;;8.80;99.90;;;;;;5060204;28;20194;-76
2022/11/23 03:49:11;;;;;;;25.95;17.50;;;8.80;99.90;;;;;;5069600;28;20335;-77
2022/11/23 03:51:37;;;;;;;29.85;18.23;;;8.80;99.90;;;;;;5070230;28;20587;-75
2022/11/23 03:54:03;;;;;;;28.90;18.23;;;8.80;99.90;;;;;;5054470;28;20217;-76
2022/11/23 03:56:29;;;;;;;32.47;18.88;;;8.80;99.90;;;;;;5061402;28;20179;-75
2022/11/23 03:58:55;;;;;;;31.77;19.38;;;8.80;99.90;;;;;;5056233;28;20188;-76
2022/11/23 04:01:22;;;;;;;30.17;18.17;;;8.80;99.90;;;;;;5069901;28;20233;-75
2022/11/23 04:03:54;;;;;;;29.40;20.17;;;8.70;99.90;;;;;;5068912;28;20174;-82
2022/11/23 04:06:49;;;;;;;31.65;19.75;;;8.70;99.90;;;;;;5016555;28;20236;-75
2022/11/23 04:09:19;;;;;;;32.75;20.60;;;8.80;99.90;;;;;;5071549;28;20233;-75
2022/11/23 04:11:59;;;;;;;42.28;21.08;;;8.80;99.90;;;;;;5071878;28;20213;-77
2022/11/23 04:14:25;;;;;;;35.47;20.38;;;8.80;99.90;;;;;;5071369;28;20337;-75
2022/11/23 04:16:51;;;;;;;42.95;20.92;;;8.80;99.90;;;;;;5056919;28;20274;-76
2022/11/23 04:19:17;;;;;;;35.90;21.13;;;8.80;99.90;;;;;;5071799;28;20661;-76
2022/11/23 04:21:43;;;;;;;40.20;21.48;;;8.80;99.90;;;;;;5089847;28;20515;-76
2022/11/23 04:24:09;;;;;;;33.85;21.33;;;8.80;99.90;;;;;;5069773;28;20630;-75
2022/11/23 04:26:36;;;;;;;37.80;21.70;;;8.90;99.90;;;;;;5077994;28;20175;-75
2022/11/23 04:29:01;;;;;;;35.00;22.33;;;8.80;99.90;;;;;;5071543;28;20232;-76
2022/11/23 04:31:29;;;;;;;35.08;21.63;;;8.90;99.90;;;;;;5071045;28;20190;-75
2022/11/23 04:34:06;;;;;;;38.85;22.33;;;8.90;99.90;;;;;;5058545;28;20312;-79
2022/11/23 04:36:32;;;;;;;35.70;21.98;;;8.90;99.90;;;;;;5057165;28;20183;-78
2022/11/23 04:38:58;;;;;;;37.65;23.05;;;8.80;99.90;;;;;;5074721;28;20189;-76
2022/11/23 04:41:33;;;;;;;42.67;23.05;;;8.90;99.90;;;;;;5068404;28;20174;-76
2022/11/23 04:44:00;;;;;;;44.05;24.05;;;8.90;99.90;;;;;;5077407;28;20206;-77
2022/11/23 04:46:26;;;;;;;38.60;23.42;;;8.90;99.90;;;;;;5085014;28;20251;-78
2022/11/23 04:48:52;;;;;;;42.97;23.45;;;8.90;99.90;;;;;;5071487;28;20190;-80
2022/11/23 04:51:19;;;;;;;42.50;24.38;;;8.90;99.90;;;;;;5072307;28;20210;-76
2022/11/23 04:53:45;;;;;;;41.67;24.58;;;8.90;99.90;;;;;;5070476;28;20214;-76
2022/11/23 04:56:12;;;;;;;42.63;24.20;;;8.90;99.90;;;;;;5070263;28;20250;-76
2022/11/23 04:58:40;;;;;;;43.97;25.23;;;8.90;99.90;;;;;;5059404;28;21188;-78
2022/11/23 05:01:07;;;;;;;44.47;25.55;;;8.90;99.90;;;;;;5065955;28;20229;-76
2022/11/23 05:03:38;;;;;;;44.22;25.20;;;8.90;99.90;;;;;;5057957;28;20183;-75
2022/11/23 05:06:08;;;;;;;44.63;24.88;;;8.90;99.90;;;;;;5074618;28;20187;-75
2022/11/23 05:08:38;;;;;;;44.47;25.45;;;8.90;99.90;;;;;;5081302;28;20554;-76
2022/11/23 05:11:31;;;;;;;44.13;24.80;;;8.90;99.90;;;;;;5082664;28;20211;-76
2022/11/23 05:13:58;;;;;;;46.20;25.98;;;8.90;99.90;;;;;;5072058;28;20211;-77
2022/11/23 05:16:24;;;;;;;45.90;25.90;;;8.90;99.90;;;;;;5088782;28;20277;-76
2022/11/23 05:18:50;;;;;;;48.95;26.25;;;8.90;99.90;;;;;;5066690;28;20273;-79
2022/11/23 05:21:16;;;;;;;46.40;25.15;;;8.90;99.90;;;;;;5062543;28;20182;-76
2022/11/23 05:23:42;;;;;;;41.00;25.95;;;8.90;99.90;;;;;;5073895;28;20194;-76
2022/11/23 05:26:08;;;;;;;46.35;26.00;;;8.90;99.90;;;;;;5070239;28;20190;-76
2022/11/23 05:28:34;;;;;;;45.75;26.13;;;8.90;99.90;;;;;;5083437;28;20554;-75
2022/11/23 05:31:00;;;;;;;46.03;26.45;;;8.90;99.90;;;;;;5075837;28;20415;-75
2022/11/23 05:33:25;;;;;;;45.38;25.80;;;8.90;99.90;;;;;;5078800;28;20624;-76
2022/11/23 05:35:51;;;;;;;46.17;25.75;;;8.90;99.90;;;;;;5072380;28;20194;-77
2022/11/23 05:38:25;;;;;;;47.67;26.25;;;8.90;99.90;;;;;;5054587;28;20190;-77
2022/11/23 05:40:51;;;;;;;48.25;26.55;;;8.90;99.90;;;;;;5067197;28;20252;-77
2022/11/23 05:43:17;;;;;;;48.58;26.85;;;8.90;99.90;;;;;;5051960;28;20281;-79
2022/11/23 05:45:43;;;;;;;43.42;25.73;;;9.00;99.90;;;;;;5064532;28;20269;-77
2022/11/23 05:48:09;;;;;;;46.65;27.65;;;9.00;99.90;;;;;;5070119;28;20217;-78
2022/11/23 05:50:49;;;;;;;51.55;28.15;;;8.90;99.90;;;;;;5071304;28;20673;-77
2022/11/23 05:53:21;;;;;;;48.45;27.50;;;9.00;99.90;;;;;;5063531;28;20581;-80
2022/11/23 05:55:52;;;;;;;51.50;28.45;;;9.00;99.90;;;;;;5065258;28;20254;-77
2022/11/23 05:58:17;;;;;;;45.83;28.02;;;9.00;99.90;;;;;;5068815;28;20214;-79
2022/11/23 06:00:43;;;;;;;45.35;27.33;;;9.00;99.90;;;;;;5070275;28;20661;-77
2022/11/23 06:03:09;;;;;;;48.72;28.65;;;9.00;99.90;;;;;;5086528;28;20178;-78
2022/11/23 06:05:35;;;;;;;56.78;30.17;;;9.00;99.90;;;;;;5080537;28;20204;-78
2022/11/23 06:08:01;;;;;;;44.63;27.85;;;9.00;99.90;;;;;;5068025;28;20183;-76
2022/11/23 06:10:27;;;;;;;46.75;28.58;;;9.00;99.90;;;;;;5069330;28;20198;-78
2022/11/23 06:12:54;;;;;;;46.22;27.40;;;9.00;99.90;;;;;;5056885;28;20317;-78
2022/11/23 06:15:21;;;;;;;45.05;27.50;;;9.00;99.90;;;;;;5078419;28;20681;-77
2022/11/23 06:17:47;;;;;;;49.75;27.48;;;9.00;99.90;;;;;;5066080;28;20198;-77
2022/11/23 06:20:18;;;;;;;48.63;27.25;;;9.10;99.90;;;;;;5071362;28;20189;-77
2022/11/23 06:22:55;;;;;;;43.25;26.17;;;9.00;99.90;;;;;;5069834;28;20182;-77
2022/11/23 06:25:22;;;;;;;47.42;26.58;;;9.10;99.90;;;;;;5060705;28;20186;-83
2022/11/23 06:27:57;;;;;;;41.60;24.90;;;9.10;99.90;;;;;;5064685;28;20171;-76
2022/11/23 06:30:29;;;;;;;42.25;24.83;;;9.10;99.90;;;;;;5076093;28;20312;-77
2022/11/23 06:33:03;;;;;;;43.10;24.48;;;9.10;99.90;;;;;;5081508;28;20187;-78
2022/11/23 06:35:31;;;;;;;36.65;23.40;;;9.10;99.90;;;;;;5058588;28;20325;-79
2022/11/23 06:37:56;;;;;;;38.45;22.67;;;9.10;99.90;;;;;;5071893;28;20301;-76
2022/11/23 06:40:23;;;;;;;43.47;23.13;;;9.10;99.90;;;;;;5074718;28;20663;-77
2022/11/23 06:42:49;;;;;;;39.53;22.08;;;9.10;99.90;;;;;;5090477;28;20191;-77
2022/11/23 06:45:27;;;;;;;42.38;22.60;;;9.00;99.90;;;;;;5069095;28;20208;-76
2022/11/23 06:47:56;;;;;;;38.80;21.33;;;9.10;99.90;;;;;;5065196;28;20187;-76
2022/11/23 06:50:22;;;;;;;29.88;19.90;;;9.10;99.90;;;;;;5073467;28;20189;-76
2022/11/23 06:52:53;;;;;;;35.88;20.88;;;9.10;99.90;;;;;;5070064;28;20233;-76
2022/11/23 06:55:25;;;;;;;34.55;20.30;;;9.00;99.90;;;;;;5057880;28;20923;-77
2022/11/23 06:57:52;;;;;;;31.38;18.52;;;9.00;99.90;;;;;;5063846;28;20236;-76
2022/11/23 07:00:18;;;;;;;30.25;18.38;;;9.00;99.90;;;;;;5091446;28;20194;-76
2022/11/23 07:02:53;;;;;;;33.00;19.48;;;9.00;99.90;;;;;;5051079;28;20541;-76
2022/11/23 07:05:22;;;;;;;31.98;18.90;;;9.10;99.90;;;;;;5063641;28;20192;-78
2022/11/23 07:07:48;;;;;;;28.70;17.48;;;9.00;99.90;;;;;;5065013;28;20703;-76
2022/11/23 07:10:20;;;;;;;32.97;17.58;;;9.00;99.90;;;;;;5072932;28;20236;-77
2022/11/23 07:12:52;;;;;;;29.58;16.58;;;9.10;99.90;;;;;;5085928;28;20175;-76
2022/11/23 07:15:20;;;;;;;28.33;16.52;;;9.00;99.90;;;;;;5054451;28;20211;-76
2022/11/23 07:17:46;;;;;;;29.55;16.05;;;9.00;99.90;;;;;;5059132;28;20533;-76
2022/11/23 07:20:13;;;;;;;28.83;15.80;;;9.00;99.90;;;;;;5068589;28;20638;-76
2022/11/23 07:22:40;;;;;;;27.98;15.02;;;9.00;99.90;;;;;;5078967;28;20208;-76
2022/11/23 07:25:07;;;;;;;27.50;15.43;;;9.00;99.90;;;;;;5062873;28;20288;-75
2022/11/23 07:27:32;;;;;;;25.63;14.98;;;9.00;99.90;;;;;;5069347;28;20182;-77
2022/11/23 07:30:00;;;;;;;26.00;13.82;;;9.00;99.90;;;;;;5067258;28;20183;-76
2022/11/23 07:32:26;;;;;;;31.08;15.32;;;9.00;99.90;;;;;;5058474;28;20723;-76
2022/11/23 07:34:51;;;;;;;24.70;14.93;;;9.00;99.90;;;;;;5072816;28;20289;-76
2022/11/23 07:37:18;;;;;;;23.65;14.27;;;9.00;99.90;;;;;;5069554;28;20195;-79
2022/11/23 07:39:44;;;;;;;24.02;13.77;;;9.00;99.90;;;;;;5066075;28;20171;-76
2022/11/23 07:42:10;;;;;;;24.73;13.07;;;9.00;99.90;;;;;;5071165;28;20187;-77
2022/11/23 07:44:38;;;;;;;26.75;13.07;;;9.00;99.90;;;;;;5073343;28;20202;-76
2022/11/23 07:47:07;;;;;;;30.85;17.70;;;9.00;99.90;;;;;;5088195;28;20185;-76
2022/11/23 07:49:33;;;;;;;20.73;13.02;;;9.00;99.90;;;;;;5058358;28;20186;-76
2022/11/23 07:51:58;;;;;;;28.05;12.60;;;9.00;99.90;;;;;;5065425;28;20187;-80
2022/11/23 07:54:24;;;;;;;30.63;15.15;;;8.90;99.90;;;;;;5071546;28;20215;-75
2022/11/23 07:56:50;;;;;;;23.85;13.68;;;9.00;99.90;;;;;;5072858;28;20590;-76
2022/11/23 07:59:15;;;;;;;24.83;13.20;;;9.00;99.90;;;;;;5062903;28;20174;-77
2022/11/23 08:01:41;;;;;;;24.10;12.95;;;9.00;99.90;;;;;;5063068;28;20274;-75
2022/11/23 08:04:07;;;;;;;24.40;12.45;;;9.00;99.90;;;;;;5059820;28;20623;-75
2022/11/23 08:06:33;;;;;;;27.00;13.30;;;9.00;99.90;;;;;;5073094;28;20182;-76
2022/11/23 08:08:59;;;;;;;24.15;12.57;;;9.00;99.90;;;;;;5071696;28;20255;-76
2022/11/23 08:11:24;;;;;;;29.20;12.55;;;9.00;99.90;;;;;;5074174;28;20163;-75
2022/11/23 08:13:53;;;;;;;22.35;11.02;;;9.00;99.90;;;;;;5072821;28;20681;-75
2022/11/23 08:16:19;;;;;;;22.60;11.73;;;9.00;99.90;;;;;;5063207;28;20315;-81
2022/11/23 08:18:45;;;;;;;27.23;11.63;;;9.00;99.90;;;;;;5070248;28;20642;-76
2022/11/23 08:21:10;;;;;;;25.10;11.05;;;9.10;99.90;;;;;;5072344;28;20186;-76
2022/11/23 08:23:36;;;;;;;23.77;10.63;;;9.00;99.90;;;;;;5072669;28;20265;-75
2022/11/23 08:26:04;;;;;;;22.08;10.07;;;9.00;99.90;;;;;;5063964;28;20182;-77
2022/11/23 08:28:29;;;;;;;22.38;10.35;;;9.00;99.90;;;;;;5062781;28;20594;-75
2022/11/23 08:30:55;;;;;;;24.15;10.90;;;9.00;99.90;;;;;;5055433;28;20263;-76
2022/11/23 08:33:22;;;;;;;21.17;10.57;;;9.00;99.90;;;;;;5072436;28;20556;-76
2022/11/23 08:35:48;;;;;;;22.60;10.38;;;9.00;99.90;;;;;;5070915;28;20194;-81
2022/11/23 08:38:14;;;;;;;16.80;8.57;;;9.10;99.90;;;;;;5059481;28;20194;-75
2022/11/23 08:40:39;;;;;;;22.45;9.55;;;9.10;99.90;;;;;;5072271;28;20182;-76
2022/11/23 08:43:05;;;;;;;18.27;8.98;;;9.00;99.90;;;;;;5069519;28;20639;-76
2022/11/23 08:45:31;;;;;;;19.05;8.77;;;9.10;99.90;;;;;;5071877;28;20187;-76
2022/11/23 08:48:01;;;;;;;24.40;9.18;;;9.10;99.90;;;;;;5058799;28;20330;-80
2022/11/23 08:50:28;;;;;;;15.85;8.02;;;9.10;99.90;;;;;;5058812;28;20259;-76
2022/11/23 08:52:58;;;;;;;18.42;8.57;;;9.10;99.90;;;;;;5064872;28;20190;-76
2022/11/23 08:55:25;;;;;;;18.48;8.85;;;9.10;99.90;;;;;;5057917;28;20320;-78
2022/11/23 08:57:55;;;;;;;18.85;8.45;;;9.10;99.90;;;;;;5058624;28;20639;-79
2022/11/23 09:00:21;;;;;;;18.50;8.23;;;9.20;99.90;;;;;;5071430;28;20200;-78
2022/11/23 09:02:46;;;;;;;21.60;8.52;;;9.10;99.90;;;;;;5069403;28;20261;-76
2022/11/23 09:05:12;;;;;;;16.90;7.93;;;9.20;99.90;;;;;;5071772;28;20193;-77
2022/11/23 09:07:38;;;;;;;19.80;8.13;;;9.20;99.90;;;;;;5060797;28;20674;-76
2022/11/23 09:10:04;;;;;;;20.30;7.90;;;9.30;99.90;;;;;;5069677;28;20559;-76
2022/11/23 09:12:30;;;;;;;19.67;8.38;;;9.30;99.90;;;;;;5071818;28;20697;-75
2022/11/23 09:14:56;;;;;;;17.20;7.80;;;9.40;99.90;;;;;;5073141;28;20321;-75
2022/11/23 09:17:21;;;;;;;13.18;7.85;;;9.40;99.90;;;;;;5071531;28;20186;-75
2022/11/23 09:19:49;;;;;;;18.73;7.85;;;9.50;99.90;;;;;;5061034;28;20919;-80
2022/11/23 09:22:15;;;;;;;16.85;8.30;;;9.50;99.90;;;;;;5068209;28;20305;-81
2022/11/23 09:24:40;;;;;;;18.80;7.80;;;9.50;99.90;;;;;;5072617;28;20588;-75
2022/11/23 09:27:06;;;;;;;21.33;7.82;;;9.50;99.90;;;;;;5071163;28;20286;-76
2022/11/23 09:29:32;;;;;;;23.20;8.10;;;9.50;99.90;;;;;;5065842;28;20179;-79
2022/11/23 09:31:58;;;;;;;22.20;8.05;;;9.50;99.90;;;;;;5061184;28;20185;-75
2022/11/23 09:34:23;;;;;;;23.25;7.95;;;9.60;99.90;;;;;;5072399;28;20210;-76
2022/11/23 09:36:49;;;;;;;19.98;7.30;;;9.60;99.90;;;;;;5087992;28;20189;-80
2022/11/23 09:39:15;;;;;;;21.13;8.07;;;9.60;99.90;;;;;;5066407;28;20193;-75
2022/11/23 09:42:12;;;;;;;22.27;7.68;;;9.70;99.90;;;;;;5058557;28;20187;-75
2022/11/23 09:45:00;;;;;;;19.77;8.10;;;9.80;99.90;;;;;;5053020;28;20205;-76
2022/11/23 09:47:59;;;;;;;26.08;8.27;;;9.80;99.90;;;;;;5072008;28;20673;-75
2022/11/23 09:50:52;;;;;;;16.05;7.15;;;9.90;99.90;;;;;;5069312;28;20206;-81
2022/11/23 09:53:46;;;;;;;18.63;6.72;;;9.90;99.90;;;;;;5057063;28;20178;-81
2022/11/23 09:56:22;;;;;;;20.60;6.47;;;9.90;99.90;;;;;;5060909;28;20252;-77
2022/11/23 09:58:54;;;;;;;12.02;5.95;;;9.90;99.90;;;;;;5067659;28;20181;-77
2022/11/23 10:01:20;;;;;;;20.67;6.43;;;9.90;99.90;;;;;;5068002;28;20190;-82
2022/11/23 10:03:46;;;;;;;16.13;6.50;;;9.80;99.90;;;;;;5064406;28;20182;-80
2022/11/23 10:06:27;;;;;;;16.50;6.55;;;9.80;99.90;;;;;;5074615;28;20265;-79
2022/11/23 10:08:59;;;;;;;23.23;6.30;;;9.80;99.90;;;;;;5057211;28;20175;-77
2022/11/23 10:11:52;;;;;;;17.58;5.97;;;9.80;99.90;;;;;;5069026;28;20186;-77
2022/11/23 10:14:59;;;;;;;18.60;5.80;;;9.80;99.90;;;;;;5069758;28;20677;-77
2022/11/23 10:17:59;;;;;;;14.73;5.88;;;9.80;99.90;;;;;;5041477;28;20227;-77
2022/11/23 10:20:34;;;;;;;18.83;6.00;;;9.80;99.90;;;;;;5070789;28;20170;-79
2022/11/23 10:23:01;;;;;;;29.42;6.72;;;9.80;99.90;;;;;;5063630;28;20187;-80
2022/11/23 10:25:41;;;;;;;17.00;6.28;;;9.70;99.90;;;;;;5061849;28;20212;-75
2022/11/23 10:28:17;;;;;;;18.75;6.30;;;9.70;99.90;;;;;;5069256;28;20214;-75
2022/11/23 10:30:52;;;;;;;17.95;5.95;;;9.80;99.90;;;;;;5072264;28;20178;-76
2022/11/23 10:33:20;;;;;;;17.70;5.78;;;9.70;99.90;;;;;;5061469;28;20435;-81
2022/11/23 10:35:46;;;;;;;15.52;5.82;;;9.70;99.90;;;;;;5057139;28;20188;-76
2022/11/23 10:38:15;;;;;;;19.95;6.22;;;9.70;99.90;;;;;;5080321;28;20573;-75
2022/11/23 10:40:49;;;;;;;17.58;6.70;;;9.70;99.90;;;;;;5050639;28;20172;-75
2022/11/23 10:43:21;;;;;;;19.90;6.30;;;9.80;99.90;;;;;;5059941;28;20181;-75
2022/11/23 10:45:47;;;;;;;20.25;6.25;;;9.70;99.90;;;;;;5060992;28;20241;-75
2022/11/23 10:48:34;;;;;;;19.10;4.97;;;9.70;99.90;;;;;;5069862;28;20575;-77
2022/11/23 10:51:27;;;;;;;15.75;5.38;;;9.80;99.90;;;;;;5070931;28;20284;-76
2022/11/23 10:53:57;;;;;;;18.33;5.65;;;9.70;99.90;;;;;;5060359;28;20210;-79
2022/11/23 10:56:23;;;;;;;15.43;5.40;;;9.70;99.90;;;;;;5061074;28;20230;-76
2022/11/23 10:58:49;;;;;;;15.13;5.75;;;9.70;99.90;;;;;;5069408;28;20188;-76
2022/11/23 11:01:21;;;;;;;20.27;5.43;;;9.70;99.90;;;;;;5071657;28;20171;-75
2022/11/23 11:03:47;;;;;;;22.10;5.50;;;9.70;99.90;;;;;;5066043;28;20174;-77
2022/11/23 11:06:25;;;;;;;17.13;5.10;;;9.70;99.90;;;;;;5057571;28;20240;-78
2022/11/23 11:08:54;;;;;;;16.42;5.45;;;9.70;99.90;;;;;;5066561;28;20178;-76
2022/11/23 11:11:28;;;;;;;15.15;4.70;;;9.70;99.90;;;;;;5075380;28;20293;-76
2022/11/23 11:14:01;;;;;;;20.05;6.38;;;9.70;99.90;;;;;;5070550;28;20208;-77
2022/11/23 11:16:35;;;;;;;16.42;5.35;;;9.70;99.90;;;;;;5055944;28;20183;-76
2022/11/23 11:19:33;;;;;;;13.23;5.50;;;9.70;99.90;;;;;;5071551;28;20240;-78
2022/11/23 11:22:01;;;;;;;19.77;5.70;;;9.80;99.90;;;;;;5072245;28;20186;-77
2022/11/23 11:24:31;;;;;;;22.95;5.80;;;9.90;99.90;;;;;;5071716;28;20272;-77
2022/11/23 11:27:01;;;;;;;27.88;6.80;;;9.90;99.90;;;;;;5060072;28;20178;-77
2022/11/23 11:29:45;;;;;;;16.33;4.70;;;10.00;99.90;;;;;;5072430;28;20183;-78
2022/11/23 11:32:13;;;;;;;14.50;4.60;;;10.10;99.90;;;;;;5071183;28;20292;-76
2022/11/23 11:34:58;;;;;;;15.35;4.68;;;10.20;99.90;;;;;;5075411;28;20210;-77
2022/11/23 11:37:45;;;;;;;19.83;5.32;;;10.20;99.90;;;;;;5073225;28;20526;-76
2022/11/23 11:40:22;;;;;;;20.52;4.75;;;10.40;99.90;;;;;;5069929;28;20190;-77
2022/11/23 11:43:32;;;;;;;20.58;4.68;;;10.60;99.90;;;;;;5068086;28;20171;-76
2022/11/23 11:46:14;;;;;;;10.77;3.58;;;10.80;99.90;;;;;;5068528;28;20286;-76
2022/11/23 11:48:56;;;;;;;17.27;3.63;;;11.00;99.90;;;;;;5073505;28;20183;-76
2022/11/23 11:51:33;;;;;;;19.33;4.40;;;11.20;99.90;;;;;;5062792;28;20198;-81
2022/11/23 11:54:20;;;;;;;19.23;4.63;;;11.30;99.90;;;;;;5068151;28;20206;-79
2022/11/23 11:56:50;;;;;;;12.65;3.95;;;11.40;99.90;;;;;;5068306;28;20214;-80
2022/11/23 11:59:41;;;;;;;19.45;4.05;;;11.40;99.90;;;;;;5073275;28;20190;-76
2022/11/23 12:02:32;;;;;;;17.27;4.10;;;11.60;99.90;;;;;;5075332;28;20206;-77
2022/11/23 12:05:11;;;;;;;18.50;3.90;;;11.60;99.90;;;;;;5068888;28;20182;-77
2022/11/23 12:07:51;;;;;;;14.05;3.60;;;11.70;99.90;;;;;;5071850;28;20250;-79
2022/11/23 12:10:47;;;;;;;18.98;4.20;;;11.80;99.90;;;;;;5073320;28;20171;-77
2022/11/23 12:13:24;;;;;;;23.02;3.67;;;11.90;99.90;;;;;;5050533;28;20186;-77
2022/11/23 12:15:57;;;;;;;15.13;3.28;;;12.10;99.90;;;;;;5061261;28;20269;-78
2022/11/23 12:18:50;;;;;;;18.95;3.30;;;12.20;99.90;;;;;;5072402;28;20178;-78
2022/11/23 12:21:56;;;;;;;14.85;3.58;;;12.40;99.90;;;;;;5073796;28;20163;-77
2022/11/23 12:24:21;;;;;;;19.35;3.97;;;12.50;99.90;;;;;;5070175;28;20189;-78
2022/11/23 12:27:04;;;;;;;24.75;3.45;;;12.50;99.90;;;;;;5072766;28;20178;-81
2022/11/23 12:29:50;;;;;;;12.82;3.38;;;12.60;99.90;;;;;;5073793;28;20174;-77
2022/11/23 12:32:44;;;;;;;18.20;3.28;;;12.80;99.90;;;;;;5071984;28;20190;-77
2022/11/23 12:35:43;;;;;;;16.92;3.33;;;12.80;99.90;;;;;;5063723;28;20229;-77
2022/11/23 12:38:32;;;;;;;14.77;3.30;;;12.90;99.90;;;;;;5070702;28;20189;-81
2022/11/23 12:41:06;;;;;;;20.45;3.13;;;13.00;99.90;;;;;;5050377;28;20210;-77
2022/11/23 12:44:10;;;;;;;17.05;3.13;;;13.10;99.90;;;;;;5072391;28;20189;-77
2022/11/23 12:46:49;;;;;;;18.33;3.63;;;13.20;99.90;;;;;;5089255;28;20185;-77
2022/11/23 12:49:36;;;;;;;16.45;2.90;;;13.30;99.90;;;;;;5071313;28;20280;-77
2022/11/23 12:52:14;;;;;;;14.50;2.83;;;13.40;99.90;;;;;;5060643;28;20178;-77
2022/11/23 12:54:52;;;;;;;17.13;3.50;;;13.50;99.90;;;;;;5052960;28;20214;-77
2022/11/23 12:57:26;;;;;;;16.30;3.30;;;13.60;99.90;;;;;;5054980;28;20354;-76